sensor_id;sensor_type;location;lat;lon;timestamp;temperature;humidity
35127;DHT22;21300;52.006;5.798;2023-10-08T00:01:52;17.00;99.90
35127;DHT22;21300;52.006;5.798;2023-10-08T00:04:21;17.00;99.90
35127;DHT22;21300;52.006;5.798;2023-10-08T00:06:47;17.00;99.90
35127;DHT22;21300;52.006;5.798;2023-10-08T00:09:12;17.00;99.90
35127;DHT22;21300;52.006;5.798;2023-10-08T00:11:40;16.90;99.90
35127;DHT22;21300;52.006;5.798;2023-10-08T00:14:06;16.90;99.90
35127;DHT22;21300;52.006;5.798;2023-10-08T00:16:39;17.00;99.90
35127;DHT22;21300;52.006;5.798;2023-10-08T00:19:08;16.90;99.90
35127;DHT22;21300;52.006;5.798;2023-10-08T00:21:34;16.90;99.90
35127;DHT22;21300;52.006;5.798;2023-10-08T00:24:02;16.90;99.90
35127;DHT22;21300;52.006;5.798;2023-10-08T00:26:32;16.90;99.90
35127;DHT22;21300;52.006;5.798;2023-10-08T00:29:04;16.90;99.90
35127;DHT22;21300;52.006;5.798;2023-10-08T00:31:41;16.90;99.90
35127;DHT22;21300;52.006;5.798;2023-10-08T00:34:07;16.90;99.90
35127;DHT22;21300;52.006;5.798;2023-10-08T00:36:41;16.90;99.90
35127;DHT22;21300;52.006;5.798;2023-10-08T00:39:08;16.80;99.90
35127;DHT22;21300;52.006;5.798;2023-10-08T00:41:43;16.90;99.90
35127;DHT22;21300;52.006;5.798;2023-10-08T00:44:10;16.90;99.90
35127;DHT22;21300;52.006;5.798;2023-10-08T00:46:42;16.80;99.90
35127;DHT22;21300;52.006;5.798;2023-10-08T00:49:13;16.80;99.90
35127;DHT22;21300;52.006;5.798;2023-10-08T00:51:45;16.80;99.90
35127;DHT22;21300;52.006;5.798;2023-10-08T00:54:25;16.80;99.90
35127;DHT22;21300;52.006;5.798;2023-10-08T00:56:53;16.80;99.90
35127;DHT22;21300;52.006;5.798;2023-10-08T00:59:23;16.70;99.90
35127;DHT22;21300;52.006;5.798;2023-10-08T01:01:51;16.80;99.90
35127;DHT22;21300;52.006;5.798;2023-10-08T01:04:23;16.70;99.90
35127;DHT22;21300;52.006;5.798;2023-10-08T01:06:54;16.80;99.90
35127;DHT22;21300;52.006;5.798;2023-10-08T01:09:27;16.70;99.90
35127;DHT22;21300;52.006;5.798;2023-10-08T01:12:12;16.70;99.90
35127;DHT22;21300;52.006;5.798;2023-10-08T01:14:43;16.60;99.90
35127;DHT22;21300;52.006;5.798;2023-10-08T01:17:10;16.70;99.90
35127;DHT22;21300;52.006;5.798;2023-10-08T01:19:40;16.60;99.90
35127;DHT22;21300;52.006;5.798;2023-10-08T01:22:06;16.60;99.90
35127;DHT22;21300;52.006;5.798;2023-10-08T01:24:33;16.60;99.90
35127;DHT22;21300;52.006;5.798;2023-10-08T01:27:01;16.60;99.90
35127;DHT22;21300;52.006;5.798;2023-10-08T01:29:30;16.50;99.90
35127;DHT22;21300;52.006;5.798;2023-10-08T01:31:57;16.50;99.90
35127;DHT22;21300;52.006;5.798;2023-10-08T01:34:23;16.50;99.90
35127;DHT22;21300;52.006;5.798;2023-10-08T01:36:56;16.50;99.90
35127;DHT22;21300;52.006;5.798;2023-10-08T01:39:27;16.50;99.90
35127;DHT22;21300;52.006;5.798;2023-10-08T01:41:52;16.50;99.90
35127;DHT22;21300;52.006;5.798;2023-10-08T01:44:18;16.50;99.90
35127;DHT22;21300;52.006;5.798;2023-10-08T01:46:44;16.50;99.90
35127;DHT22;21300;52.006;5.798;2023-10-08T01:49:11;16.50;99.90
35127;DHT22;21300;52.006;5.798;2023-10-08T01:51:40;16.50;99.90
35127;DHT22;21300;52.006;5.798;2023-10-08T01:54:13;16.40;99.90
35127;DHT22;21300;52.006;5.798;2023-10-08T01:56:41;16.50;99.90
35127;DHT22;21300;52.006;5.798;2023-10-08T01:59:11;16.50;99.90
35127;DHT22;21300;52.006;5.798;2023-10-08T02:01:42;16.40;99.90
35127;DHT22;21300;52.006;5.798;2023-10-08T02:04:09;16.40;99.90
35127;DHT22;21300;52.006;5.798;2023-10-08T02:06:39;16.40;99.90
35127;DHT22;21300;52.006;5.798;2023-10-08T02:09:05;16.40;99.90
35127;DHT22;21300;52.006;5.798;2023-10-08T02:11:47;16.40;99.90
35127;DHT22;21300;52.006;5.798;2023-10-08T02:14:19;16.30;99.90
35127;DHT22;21300;52.006;5.798;2023-10-08T02:16:46;16.40;99.90
35127;DHT22;21300;52.006;5.798;2023-10-08T02:19:12;16.30;99.90
35127;DHT22;21300;52.006;5.798;2023-10-08T02:21:39;16.30;99.90
35127;DHT22;21300;52.006;5.798;2023-10-08T02:24:11;16.30;99.90
35127;DHT22;21300;52.006;5.798;2023-10-08T02:26:38;16.30;99.90
35127;DHT22;21300;52.006;5.798;2023-10-08T02:29:04;16.30;99.90
35127;DHT22;21300;52.006;5.798;2023-10-08T02:31:40;16.20;99.90
35127;DHT22;21300;52.006;5.798;2023-10-08T02:34:09;16.20;99.90
35127;DHT22;21300;52.006;5.798;2023-10-08T02:36:36;16.30;99.90
35127;DHT22;21300;52.006;5.798;2023-10-08T02:39:03;16.20;99.90
35127;DHT22;21300;52.006;5.798;2023-10-08T02:41:42;16.20;99.90
35127;DHT22;21300;52.006;5.798;2023-10-08T02:44:11;16.20;99.90
35127;DHT22;21300;52.006;5.798;2023-10-08T02:46:42;16.20;99.90
35127;DHT22;21300;52.006;5.798;2023-10-08T02:49:10;16.20;99.90
35127;DHT22;21300;52.006;5.798;2023-10-08T02:51:40;16.30;99.90
35127;DHT22;21300;52.006;5.798;2023-10-08T02:54:07;16.20;99.90
35127;DHT22;21300;52.006;5.798;2023-10-08T02:56:42;16.20;99.90
35127;DHT22;21300;52.006;5.798;2023-10-08T02:59:10;16.20;99.90
35127;DHT22;21300;52.006;5.798;2023-10-08T03:01:38;16.20;99.90
35127;DHT22;21300;52.006;5.798;2023-10-08T03:04:07;16.20;99.90
35127;DHT22;21300;52.006;5.798;2023-10-08T03:06:47;16.20;99.90
35127;DHT22;21300;52.006;5.798;2023-10-08T03:09:17;16.20;99.90
35127;DHT22;21300;52.006;5.798;2023-10-08T03:11:47;16.20;99.90
35127;DHT22;21300;52.006;5.798;2023-10-08T03:14:17;16.20;99.90
35127;DHT22;21300;52.006;5.798;2023-10-08T03:16:52;16.20;99.90
35127;DHT22;21300;52.006;5.798;2023-10-08T03:19:19;16.20;99.90
35127;DHT22;21300;52.006;5.798;2023-10-08T03:21:49;16.10;99.90
35127;DHT22;21300;52.006;5.798;2023-10-08T03:24:21;16.20;99.90
35127;DHT22;21300;52.006;5.798;2023-10-08T03:27:04;16.10;99.90
35127;DHT22;21300;52.006;5.798;2023-10-08T03:29:37;16.10;99.90
35127;DHT22;21300;52.006;5.798;2023-10-08T03:32:10;16.10;99.90
35127;DHT22;21300;52.006;5.798;2023-10-08T03:34:52;16.10;99.90
35127;DHT22;21300;52.006;5.798;2023-10-08T03:37:22;16.10;99.90
35127;DHT22;21300;52.006;5.798;2023-10-08T03:39:55;16.10;99.90
35127;DHT22;21300;52.006;5.798;2023-10-08T03:42:50;16.10;99.90
35127;DHT22;21300;52.006;5.798;2023-10-08T03:45:16;16.00;99.90
35127;DHT22;21300;52.006;5.798;2023-10-08T03:47:54;16.00;99.90
35127;DHT22;21300;52.006;5.798;2023-10-08T03:50:34;16.00;99.90
35127;DHT22;21300;52.006;5.798;2023-10-08T03:53:07;16.00;99.90
35127;DHT22;21300;52.006;5.798;2023-10-08T03:55:40;16.00;99.90
35127;DHT22;21300;52.006;5.798;2023-10-08T03:58:07;16.00;99.90
35127;DHT22;21300;52.006;5.798;2023-10-08T04:00:37;16.00;99.90
35127;DHT22;21300;52.006;5.798;2023-10-08T04:03:10;16.00;99.90
35127;DHT22;21300;52.006;5.798;2023-10-08T04:05:37;16.00;99.90
35127;DHT22;21300;52.006;5.798;2023-10-08T04:08:35;16.00;99.90
35127;DHT22;21300;52.006;5.798;2023-10-08T04:11:20;16.00;99.90
35127;DHT22;21300;52.006;5.798;2023-10-08T04:13:56;16.10;99.90
35127;DHT22;21300;52.006;5.798;2023-10-08T04:16:25;16.00;99.90
35127;DHT22;21300;52.006;5.798;2023-10-08T04:18:53;16.00;99.90
35127;DHT22;21300;52.006;5.798;2023-10-08T04:21:22;16.00;99.90
35127;DHT22;21300;52.006;5.798;2023-10-08T04:23:48;16.10;99.90
35127;DHT22;21300;52.006;5.798;2023-10-08T04:26:17;16.00;99.90
35127;DHT22;21300;52.006;5.798;2023-10-08T04:28:56;16.00;99.90
35127;DHT22;21300;52.006;5.798;2023-10-08T04:31:27;16.10;99.90
35127;DHT22;21300;52.006;5.798;2023-10-08T04:34:04;16.00;99.90
35127;DHT22;21300;52.006;5.798;2023-10-08T04:36:43;15.80;99.90
35127;DHT22;21300;52.006;5.798;2023-10-08T04:39:11;15.60;99.90
35127;DHT22;21300;52.006;5.798;2023-10-08T04:41:47;15.50;99.90
35127;DHT22;21300;52.006;5.798;2023-10-08T04:44:14;15.50;99.90
35127;DHT22;21300;52.006;5.798;2023-10-08T04:46:44;15.40;99.90
35127;DHT22;21300;52.006;5.798;2023-10-08T04:49:17;15.30;99.90
35127;DHT22;21300;52.006;5.798;2023-10-08T04:52:03;15.20;99.90
35127;DHT22;21300;52.006;5.798;2023-10-08T04:54:41;15.10;99.90
35127;DHT22;21300;52.006;5.798;2023-10-08T04:57:12;15.00;99.90
35127;DHT22;21300;52.006;5.798;2023-10-08T04:59:41;14.80;99.90
35127;DHT22;21300;52.006;5.798;2023-10-08T05:02:08;14.80;99.90
35127;DHT22;21300;52.006;5.798;2023-10-08T05:04:40;14.70;99.90
35127;DHT22;21300;52.006;5.798;2023-10-08T05:07:18;14.70;99.90
35127;DHT22;21300;52.006;5.798;2023-10-08T05:10:03;14.80;99.90
35127;DHT22;21300;52.006;5.798;2023-10-08T05:12:29;14.80;99.90
35127;DHT22;21300;52.006;5.798;2023-10-08T05:14:57;14.80;99.90
35127;DHT22;21300;52.006;5.798;2023-10-08T05:17:39;14.70;99.90
35127;DHT22;21300;52.006;5.798;2023-10-08T05:20:19;14.50;99.90
35127;DHT22;21300;52.006;5.798;2023-10-08T05:22:56;14.50;99.90
35127;DHT22;21300;52.006;5.798;2023-10-08T05:25:34;14.50;99.90
35127;DHT22;21300;52.006;5.798;2023-10-08T05:28:19;14.50;99.90
35127;DHT22;21300;52.006;5.798;2023-10-08T05:30:53;14.50;99.90
35127;DHT22;21300;52.006;5.798;2023-10-08T05:33:37;14.50;99.90
35127;DHT22;21300;52.006;5.798;2023-10-08T05:36:15;14.40;99.90
35127;DHT22;21300;52.006;5.798;2023-10-08T05:38:53;14.30;99.90
35127;DHT22;21300;52.006;5.798;2023-10-08T05:41:41;14.20;99.90
35127;DHT22;21300;52.006;5.798;2023-10-08T05:44:17;14.10;99.90
35127;DHT22;21300;52.006;5.798;2023-10-08T05:46:43;14.10;99.90
35127;DHT22;21300;52.006;5.798;2023-10-08T05:49:35;14.10;99.90
35127;DHT22;21300;52.006;5.798;2023-10-08T05:52:00;14.10;99.90
35127;DHT22;21300;52.006;5.798;2023-10-08T05:54:28;14.10;99.90
35127;DHT22;21300;52.006;5.798;2023-10-08T05:56:59;13.90;99.90
35127;DHT22;21300;52.006;5.798;2023-10-08T05:59:31;13.80;99.90
35127;DHT22;21300;52.006;5.798;2023-10-08T06:02:30;13.80;99.90
35127;DHT22;21300;52.006;5.798;2023-10-08T06:05:00;13.80;99.90
35127;DHT22;21300;52.006;5.798;2023-10-08T06:07:38;13.70;99.90
35127;DHT22;21300;52.006;5.798;2023-10-08T06:10:23;13.80;99.90
35127;DHT22;21300;52.006;5.798;2023-10-08T06:18:17;13.70;99.90
35127;DHT22;21300;52.006;5.798;2023-10-08T06:20:45;13.70;99.90
35127;DHT22;21300;52.006;5.798;2023-10-08T06:23:15;13.70;99.90
35127;DHT22;21300;52.006;5.798;2023-10-08T06:25:44;13.60;99.90
35127;DHT22;21300;52.006;5.798;2023-10-08T06:28:12;13.40;99.90
35127;DHT22;21300;52.006;5.798;2023-10-08T06:30:38;13.40;99.90
35127;DHT22;21300;52.006;5.798;2023-10-08T06:33:09;13.40;99.90
35127;DHT22;21300;52.006;5.798;2023-10-08T06:35:35;13.40;99.90
35127;DHT22;21300;52.006;5.798;2023-10-08T06:38:02;13.40;99.90
35127;DHT22;21300;52.006;5.798;2023-10-08T06:40:35;13.30;99.90
35127;DHT22;21300;52.006;5.798;2023-10-08T06:43:04;13.30;99.90
35127;DHT22;21300;52.006;5.798;2023-10-08T06:45:47;13.30;99.90
35127;DHT22;21300;52.006;5.798;2023-10-08T06:48:18;13.30;99.90
35127;DHT22;21300;52.006;5.798;2023-10-08T06:50:51;13.30;99.90
35127;DHT22;21300;52.006;5.798;2023-10-08T06:53:17;13.30;99.90
35127;DHT22;21300;52.006;5.798;2023-10-08T06:55:47;13.30;99.90
35127;DHT22;21300;52.006;5.798;2023-10-08T06:58:25;13.20;99.90
35127;DHT22;21300;52.006;5.798;2023-10-08T07:00:52;13.20;99.90
35127;DHT22;21300;52.006;5.798;2023-10-08T07:03:18;13.30;99.90
35127;DHT22;21300;52.006;5.798;2023-10-08T07:05:48;13.30;99.90
35127;DHT22;21300;52.006;5.798;2023-10-08T07:08:24;13.30;99.90
35127;DHT22;21300;52.006;5.798;2023-10-08T07:10:51;13.30;99.90
35127;DHT22;21300;52.006;5.798;2023-10-08T07:13:18;13.20;99.90
35127;DHT22;21300;52.006;5.798;2023-10-08T07:15:45;13.20;99.90
35127;DHT22;21300;52.006;5.798;2023-10-08T07:18:14;13.20;99.90
35127;DHT22;21300;52.006;5.798;2023-10-08T07:20:45;13.30;99.90
35127;DHT22;21300;52.006;5.798;2023-10-08T07:23:11;13.30;99.90
35127;DHT22;21300;52.006;5.798;2023-10-08T07:25:52;13.30;99.90
35127;DHT22;21300;52.006;5.798;2023-10-08T07:28:19;13.30;99.90
35127;DHT22;21300;52.006;5.798;2023-10-08T07:30:45;13.30;99.90
35127;DHT22;21300;52.006;5.798;2023-10-08T07:33:11;13.30;99.90
35127;DHT22;21300;52.006;5.798;2023-10-08T07:35:47;13.30;99.90
35127;DHT22;21300;52.006;5.798;2023-10-08T07:38:20;13.40;99.90
35127;DHT22;21300;52.006;5.798;2023-10-08T07:40:47;13.40;99.90
35127;DHT22;21300;52.006;5.798;2023-10-08T07:43:13;13.40;99.90
35127;DHT22;21300;52.006;5.798;2023-10-08T07:45:40;13.40;99.90
35127;DHT22;21300;52.006;5.798;2023-10-08T07:48:06;13.40;99.90
35127;DHT22;21300;52.006;5.798;2023-10-08T07:50:40;13.40;99.90
35127;DHT22;21300;52.006;5.798;2023-10-08T07:53:06;13.40;99.90
35127;DHT22;21300;52.006;5.798;2023-10-08T07:55:31;13.40;99.90
35127;DHT22;21300;52.006;5.798;2023-10-08T07:57:59;13.40;99.90
35127;DHT22;21300;52.006;5.798;2023-10-08T08:00:28;13.50;99.90
35127;DHT22;21300;52.006;5.798;2023-10-08T08:02:56;13.50;99.90
35127;DHT22;21300;52.006;5.798;2023-10-08T08:05:23;13.50;99.90
35127;DHT22;21300;52.006;5.798;2023-10-08T08:07:49;13.50;99.90
35127;DHT22;21300;52.006;5.798;2023-10-08T08:10:18;13.60;99.90
35127;DHT22;21300;52.006;5.798;2023-10-08T08:12:44;13.50;99.90
35127;DHT22;21300;52.006;5.798;2023-10-08T08:15:11;13.50;99.90
35127;DHT22;21300;52.006;5.798;2023-10-08T08:17:43;13.60;99.90
35127;DHT22;21300;52.006;5.798;2023-10-08T08:20:09;13.60;99.90
35127;DHT22;21300;52.006;5.798;2023-10-08T08:22:44;13.60;99.90
35127;DHT22;21300;52.006;5.798;2023-10-08T08:25:16;13.70;99.90
35127;DHT22;21300;52.006;5.798;2023-10-08T08:27:54;13.60;99.90
35127;DHT22;21300;52.006;5.798;2023-10-08T08:30:21;13.70;99.90
35127;DHT22;21300;52.006;5.798;2023-10-08T08:32:52;13.60;99.90
35127;DHT22;21300;52.006;5.798;2023-10-08T08:35:17;13.70;99.90
35127;DHT22;21300;52.006;5.798;2023-10-08T08:37:45;13.70;99.90
35127;DHT22;21300;52.006;5.798;2023-10-08T08:40:18;13.70;99.90
35127;DHT22;21300;52.006;5.798;2023-10-08T08:42:49;13.70;99.90
35127;DHT22;21300;52.006;5.798;2023-10-08T08:45:22;13.80;99.90
35127;DHT22;21300;52.006;5.798;2023-10-08T08:47:50;13.80;99.90
35127;DHT22;21300;52.006;5.798;2023-10-08T08:50:17;13.80;99.90
35127;DHT22;21300;52.006;5.798;2023-10-08T08:52:43;13.80;99.90
35127;DHT22;21300;52.006;5.798;2023-10-08T08:55:11;13.80;99.90
35127;DHT22;21300;52.006;5.798;2023-10-08T08:57:44;13.70;99.90
35127;DHT22;21300;52.006;5.798;2023-10-08T09:00:15;13.80;99.90
35127;DHT22;21300;52.006;5.798;2023-10-08T09:02:48;13.80;99.90
35127;DHT22;21300;52.006;5.798;2023-10-08T09:05:14;13.80;99.90
35127;DHT22;21300;52.006;5.798;2023-10-08T09:10:20;13.90;99.90
35127;DHT22;21300;52.006;5.798;2023-10-08T09:12:51;13.80;99.90
35127;DHT22;21300;52.006;5.798;2023-10-08T09:15:17;13.80;99.90
35127;DHT22;21300;52.006;5.798;2023-10-08T09:17:44;13.80;99.90
35127;DHT22;21300;52.006;5.798;2023-10-08T09:20:09;13.80;99.90
35127;DHT22;21300;52.006;5.798;2023-10-08T09:22:37;13.80;99.90
35127;DHT22;21300;52.006;5.798;2023-10-08T09:25:03;13.80;99.90
35127;DHT22;21300;52.006;5.798;2023-10-08T09:27:33;13.80;99.90
35127;DHT22;21300;52.006;5.798;2023-10-08T09:29:59;13.80;99.90
35127;DHT22;21300;52.006;5.798;2023-10-08T09:32:33;13.80;99.90
35127;DHT22;21300;52.006;5.798;2023-10-08T09:35:00;13.90;99.90
35127;DHT22;21300;52.006;5.798;2023-10-08T09:37:25;13.90;99.90
35127;DHT22;21300;52.006;5.798;2023-10-08T09:39:52;13.80;99.90
35127;DHT22;21300;52.006;5.798;2023-10-08T09:42:19;13.90;99.90
35127;DHT22;21300;52.006;5.798;2023-10-08T09:44:48;14.00;99.90
35127;DHT22;21300;52.006;5.798;2023-10-08T09:47:17;14.10;99.90
35127;DHT22;21300;52.006;5.798;2023-10-08T09:52:34;14.20;99.90
35127;DHT22;21300;52.006;5.798;2023-10-08T09:55:10;14.20;99.90
35127;DHT22;21300;52.006;5.798;2023-10-08T09:57:36;14.30;99.90
35127;DHT22;21300;52.006;5.798;2023-10-08T10:00:05;14.30;99.90
35127;DHT22;21300;52.006;5.798;2023-10-08T10:02:36;14.30;99.90
35127;DHT22;21300;52.006;5.798;2023-10-08T10:05:02;14.30;99.90
35127;DHT22;21300;52.006;5.798;2023-10-08T10:07:29;14.30;99.90
35127;DHT22;21300;52.006;5.798;2023-10-08T10:09:55;14.30;99.90
35127;DHT22;21300;52.006;5.798;2023-10-08T10:12:27;14.40;99.90
35127;DHT22;21300;52.006;5.798;2023-10-08T10:14:55;14.50;99.90
35127;DHT22;21300;52.006;5.798;2023-10-08T10:17:24;14.50;99.90
35127;DHT22;21300;52.006;5.798;2023-10-08T10:20:00;14.50;99.90
35127;DHT22;21300;52.006;5.798;2023-10-08T10:22:29;14.40;99.90
35127;DHT22;21300;52.006;5.798;2023-10-08T10:24:56;14.40;99.90
35127;DHT22;21300;52.006;5.798;2023-10-08T10:27:23;14.40;99.90
35127;DHT22;21300;52.006;5.798;2023-10-08T10:29:49;14.60;99.90
35127;DHT22;21300;52.006;5.798;2023-10-08T10:32:15;14.60;99.90
35127;DHT22;21300;52.006;5.798;2023-10-08T10:34:43;14.70;99.90
35127;DHT22;21300;52.006;5.798;2023-10-08T10:37:09;14.70;99.90
35127;DHT22;21300;52.006;5.798;2023-10-08T10:39:54;14.80;99.90
35127;DHT22;21300;52.006;5.798;2023-10-08T10:42:22;14.70;99.90
35127;DHT22;21300;52.006;5.798;2023-10-08T10:44:49;14.70;99.90
35127;DHT22;21300;52.006;5.798;2023-10-08T10:47:16;14.80;99.90
35127;DHT22;21300;52.006;5.798;2023-10-08T10:49:43;14.90;99.90
35127;DHT22;21300;52.006;5.798;2023-10-08T10:52:28;14.80;99.90
35127;DHT22;21300;52.006;5.798;2023-10-08T10:55:05;14.90;99.90
35127;DHT22;21300;52.006;5.798;2023-10-08T10:57:48;15.00;99.90
35127;DHT22;21300;52.006;5.798;2023-10-08T11:00:43;15.10;99.90
35127;DHT22;21300;52.006;5.798;2023-10-08T11:03:09;15.10;99.90
35127;DHT22;21300;52.006;5.798;2023-10-08T11:05:57;15.20;99.90
35127;DHT22;21300;52.006;5.798;2023-10-08T11:08:26;15.20;99.90
35127;DHT22;21300;52.006;5.798;2023-10-08T11:10:59;15.30;99.90
35127;DHT22;21300;52.006;5.798;2023-10-08T11:13:32;15.30;99.90
35127;DHT22;21300;52.006;5.798;2023-10-08T11:16:04;15.30;99.90
35127;DHT22;21300;52.006;5.798;2023-10-08T11:18:30;15.30;99.90
35127;DHT22;21300;52.006;5.798;2023-10-08T11:21:10;15.50;99.90
35127;DHT22;21300;52.006;5.798;2023-10-08T11:23:47;15.50;99.90
35127;DHT22;21300;52.006;5.798;2023-10-08T11:26:19;15.40;99.90
35127;DHT22;21300;52.006;5.798;2023-10-08T11:28:45;15.30;99.90
35127;DHT22;21300;52.006;5.798;2023-10-08T11:31:17;15.40;99.90
35127;DHT22;21300;52.006;5.798;2023-10-08T11:33:46;15.50;99.90
35127;DHT22;21300;52.006;5.798;2023-10-08T11:36:23;15.60;99.90
35127;DHT22;21300;52.006;5.798;2023-10-08T11:38:56;15.60;99.90
35127;DHT22;21300;52.006;5.798;2023-10-08T11:41:30;15.50;99.90
35127;DHT22;21300;52.006;5.798;2023-10-08T11:43:57;15.50;99.90
35127;DHT22;21300;52.006;5.798;2023-10-08T11:46:26;15.50;99.90
35127;DHT22;21300;52.006;5.798;2023-10-08T11:48:54;15.60;99.90
35127;DHT22;21300;52.006;5.798;2023-10-08T11:51:24;15.70;99.90
35127;DHT22;21300;52.006;5.798;2023-10-08T11:53:50;15.60;99.90
35127;DHT22;21300;52.006;5.798;2023-10-08T11:56:17;15.60;99.90
35127;DHT22;21300;52.006;5.798;2023-10-08T11:58:47;15.50;99.90
35127;DHT22;21300;52.006;5.798;2023-10-08T12:01:12;15.40;99.90
35127;DHT22;21300;52.006;5.798;2023-10-08T12:03:43;15.40;99.90
35127;DHT22;21300;52.006;5.798;2023-10-08T12:06:11;15.30;99.90
35127;DHT22;21300;52.006;5.798;2023-10-08T12:08:47;15.30;99.90
35127;DHT22;21300;52.006;5.798;2023-10-08T12:11:15;15.30;99.90
35127;DHT22;21300;52.006;5.798;2023-10-08T12:13:42;15.30;99.90
35127;DHT22;21300;52.006;5.798;2023-10-08T12:16:15;15.40;99.90
35127;DHT22;21300;52.006;5.798;2023-10-08T12:18:47;15.50;99.90
35127;DHT22;21300;52.006;5.798;2023-10-08T12:21:27;15.60;99.90
35127;DHT22;21300;52.006;5.798;2023-10-08T12:23:57;15.50;99.90
35127;DHT22;21300;52.006;5.798;2023-10-08T12:26:23;15.50;99.90
35127;DHT22;21300;52.006;5.798;2023-10-08T12:28:49;15.40;99.90
35127;DHT22;21300;52.006;5.798;2023-10-08T12:31:18;15.50;99.90
35127;DHT22;21300;52.006;5.798;2023-10-08T12:33:48;15.50;99.90
35127;DHT22;21300;52.006;5.798;2023-10-08T12:36:13;15.50;99.90
35127;DHT22;21300;52.006;5.798;2023-10-08T12:38:42;15.60;99.90
35127;DHT22;21300;52.006;5.798;2023-10-08T12:41:12;15.60;99.90
35127;DHT22;21300;52.006;5.798;2023-10-08T12:43:39;15.60;99.90
35127;DHT22;21300;52.006;5.798;2023-10-08T12:46:08;15.60;99.90
35127;DHT22;21300;52.006;5.798;2023-10-08T12:48:39;15.60;99.90
35127;DHT22;21300;52.006;5.798;2023-10-08T12:51:05;15.50;99.90
35127;DHT22;21300;52.006;5.798;2023-10-08T12:53:32;15.50;99.90
35127;DHT22;21300;52.006;5.798;2023-10-08T12:56:09;15.50;99.90
35127;DHT22;21300;52.006;5.798;2023-10-08T12:58:41;15.50;99.90
35127;DHT22;21300;52.006;5.798;2023-10-08T13:01:10;15.50;99.90
35127;DHT22;21300;52.006;5.798;2023-10-08T13:03:37;15.50;99.90
35127;DHT22;21300;52.006;5.798;2023-10-08T13:06:13;15.60;99.90
35127;DHT22;21300;52.006;5.798;2023-10-08T13:08:54;15.70;99.90
35127;DHT22;21300;52.006;5.798;2023-10-08T13:11:21;15.70;99.90
35127;DHT22;21300;52.006;5.798;2023-10-08T13:13:54;15.80;99.90
35127;DHT22;21300;52.006;5.798;2023-10-08T13:16:23;15.90;99.90
35127;DHT22;21300;52.006;5.798;2023-10-08T13:18:49;15.90;99.90
35127;DHT22;21300;52.006;5.798;2023-10-08T13:21:14;15.90;99.90
35127;DHT22;21300;52.006;5.798;2023-10-08T13:23:40;15.80;99.90
35127;DHT22;21300;52.006;5.798;2023-10-08T13:26:06;15.70;99.90
35127;DHT22;21300;52.006;5.798;2023-10-08T13:28:36;15.70;99.90
35127;DHT22;21300;52.006;5.798;2023-10-08T13:31:05;15.70;99.90
35127;DHT22;21300;52.006;5.798;2023-10-08T13:33:37;15.60;99.90
35127;DHT22;21300;52.006;5.798;2023-10-08T13:36:11;15.60;99.90
35127;DHT22;21300;52.006;5.798;2023-10-08T13:38:39;15.60;99.90
35127;DHT22;21300;52.006;5.798;2023-10-08T13:41:08;15.70;99.90
35127;DHT22;21300;52.006;5.798;2023-10-08T13:43:48;15.70;99.90
35127;DHT22;21300;52.006;5.798;2023-10-08T13:46:18;15.80;99.90
35127;DHT22;21300;52.006;5.798;2023-10-08T13:48:47;15.80;99.90
35127;DHT22;21300;52.006;5.798;2023-10-08T13:51:21;15.80;99.90
35127;DHT22;21300;52.006;5.798;2023-10-08T13:53:52;15.70;99.90
35127;DHT22;21300;52.006;5.798;2023-10-08T13:56:21;15.80;99.90
35127;DHT22;21300;52.006;5.798;2023-10-08T13:58:54;15.80;99.90
35127;DHT22;21300;52.006;5.798;2023-10-08T14:01:33;15.70;99.90
35127;DHT22;21300;52.006;5.798;2023-10-08T14:04:00;15.70;99.90
35127;DHT22;21300;52.006;5.798;2023-10-08T14:06:32;15.60;99.90
35127;DHT22;21300;52.006;5.798;2023-10-08T14:08:58;15.70;99.90
35127;DHT22;21300;52.006;5.798;2023-10-08T14:11:26;15.60;99.90
35127;DHT22;21300;52.006;5.798;2023-10-08T14:13:56;15.70;99.90
35127;DHT22;21300;52.006;5.798;2023-10-08T14:16:22;15.70;99.90
35127;DHT22;21300;52.006;5.798;2023-10-08T14:18:55;15.80;99.90
35127;DHT22;21300;52.006;5.798;2023-10-08T14:21:21;15.80;99.90
35127;DHT22;21300;52.006;5.798;2023-10-08T14:23:52;15.80;99.90
35127;DHT22;21300;52.006;5.798;2023-10-08T14:26:21;15.80;99.90
35127;DHT22;21300;52.006;5.798;2023-10-08T14:28:48;15.70;99.90
35127;DHT22;21300;52.006;5.798;2023-10-08T14:31:19;15.70;99.90
35127;DHT22;21300;52.006;5.798;2023-10-08T14:33:48;15.70;99.90
35127;DHT22;21300;52.006;5.798;2023-10-08T14:36:47;15.70;99.90
35127;DHT22;21300;52.006;5.798;2023-10-08T14:39:33;15.70;99.90
35127;DHT22;21300;52.006;5.798;2023-10-08T14:42:18;15.70;99.90
35127;DHT22;21300;52.006;5.798;2023-10-08T14:45:03;15.60;99.90
35127;DHT22;21300;52.006;5.798;2023-10-08T14:47:29;15.50;99.90
35127;DHT22;21300;52.006;5.798;2023-10-08T14:49:55;15.60;99.90
35127;DHT22;21300;52.006;5.798;2023-10-08T14:52:28;15.50;99.90
35127;DHT22;21300;52.006;5.798;2023-10-08T14:54:53;15.40;99.90
35127;DHT22;21300;52.006;5.798;2023-10-08T14:57:19;15.40;99.90
35127;DHT22;21300;52.006;5.798;2023-10-08T14:59:44;15.50;99.90
35127;DHT22;21300;52.006;5.798;2023-10-08T15:02:10;15.50;99.90
35127;DHT22;21300;52.006;5.798;2023-10-08T15:04:37;15.40;99.90
35127;DHT22;21300;52.006;5.798;2023-10-08T15:07:05;15.50;99.90
35127;DHT22;21300;52.006;5.798;2023-10-08T15:09:36;15.40;99.90
35127;DHT22;21300;52.006;5.798;2023-10-08T15:12:03;15.50;99.90
35127;DHT22;21300;52.006;5.798;2023-10-08T15:14:28;15.50;99.90
35127;DHT22;21300;52.006;5.798;2023-10-08T15:16:54;15.50;99.90
35127;DHT22;21300;52.006;5.798;2023-10-08T15:19:22;15.50;99.90
35127;DHT22;21300;52.006;5.798;2023-10-08T15:21:48;15.50;99.90
35127;DHT22;21300;52.006;5.798;2023-10-08T15:24:24;15.50;99.90
35127;DHT22;21300;52.006;5.798;2023-10-08T15:26:51;15.50;99.90
35127;DHT22;21300;52.006;5.798;2023-10-08T15:29:24;15.60;99.90
35127;DHT22;21300;52.006;5.798;2023-10-08T15:31:53;15.60;99.90
35127;DHT22;21300;52.006;5.798;2023-10-08T15:34:20;15.60;99.90
35127;DHT22;21300;52.006;5.798;2023-10-08T15:36:46;15.50;99.90
35127;DHT22;21300;52.006;5.798;2023-10-08T15:39:12;15.60;99.90
35127;DHT22;21300;52.006;5.798;2023-10-08T15:41:38;15.60;99.90
35127;DHT22;21300;52.006;5.798;2023-10-08T15:44:05;15.50;99.90
35127;DHT22;21300;52.006;5.798;2023-10-08T15:46:34;15.50;99.90
35127;DHT22;21300;52.006;5.798;2023-10-08T15:49:03;15.50;99.90
35127;DHT22;21300;52.006;5.798;2023-10-08T15:51:32;15.50;99.90
35127;DHT22;21300;52.006;5.798;2023-10-08T15:53:58;15.50;99.90
35127;DHT22;21300;52.006;5.798;2023-10-08T15:56:25;15.40;99.90
35127;DHT22;21300;52.006;5.798;2023-10-08T15:58:52;15.50;99.90
35127;DHT22;21300;52.006;5.798;2023-10-08T16:01:18;15.40;99.90
35127;DHT22;21300;52.006;5.798;2023-10-08T16:03:44;15.40;99.90